createdAt,value
2023-05-22T00:00:16.967Z,100938.16
2023-05-22T00:02:45.016Z,100940.13
2023-05-22T00:05:15.744Z,100934.44
2023-05-22T00:07:45.142Z,100936.25
2023-05-22T00:10:12.934Z,100926.25
2023-05-22T00:12:39.888Z,100928.34
2023-05-22T00:15:11.879Z,100930.63
2023-05-22T00:17:40.182Z,100946.78
2023-05-22T00:20:09.300Z,100935.50
2023-05-22T00:22:46.189Z,100930.91
2023-05-22T00:25:15.594Z,100934.06
2023-05-22T00:27:44.676Z,100924.84
2023-05-22T00:30:12.438Z,100924.06
2023-05-22T00:32:43.649Z,100921.59
2023-05-22T00:35:15.980Z,100920.38
2023-05-22T00:37:47.041Z,100913.03
2023-05-22T00:40:18.438Z,100919.38
2023-05-22T00:42:46.393Z,100918.47
2023-05-22T00:45:16.435Z,100922.41
2023-05-22T00:47:43.875Z,100920.22
2023-05-22T00:50:12.170Z,100916.91
2023-05-22T00:52:45.817Z,100914.09
2023-05-22T00:55:18.363Z,100922.03
2023-05-22T00:57:50.624Z,100921.94
2023-05-22T01:00:18.120Z,100924.84
2023-05-22T01:02:45.404Z,100915.69
2023-05-22T01:05:18.528Z,100918.03
2023-05-22T01:07:48.925Z,100923.16
2023-05-22T01:10:16.054Z,100923.25
2023-05-22T01:13:05.283Z,100925.91
2023-05-22T01:15:32.201Z,100929.72
2023-05-22T01:18:35.348Z,100916.13
2023-05-22T01:21:23.772Z,100924.00
2023-05-22T01:24:25.951Z,100922.94
2023-05-22T01:27:01.696Z,100918.50
2023-05-22T01:29:31.527Z,100911.38
2023-05-22T01:32:00.882Z,100928.19
2023-05-22T01:34:34.360Z,100925.06
2023-05-22T01:37:02.278Z,100923.88
2023-05-22T01:39:31.235Z,100931.03
2023-05-22T01:42:00.959Z,100934.06
2023-05-22T01:44:29.059Z,100924.44
2023-05-22T01:47:00.838Z,100923.88
2023-05-22T01:49:34.921Z,100928.34
2023-05-22T01:52:37.515Z,100927.09
2023-05-22T01:55:13.728Z,100934.06
2023-05-22T01:57:48.538Z,100934.06
2023-05-22T02:00:18.765Z,100927.09
2023-05-22T02:02:54.247Z,100933.59
2023-05-22T02:05:27.566Z,100928.19
2023-05-22T02:07:57.141Z,100920.53
2023-05-22T02:10:26.301Z,100925.81
2023-05-22T02:12:54.166Z,100925.53
2023-05-22T02:15:21.632Z,100921.38
2023-05-22T02:17:50.190Z,100921.00
2023-05-22T02:20:17.438Z,100924.38
2023-05-22T02:22:52.264Z,100919.25
2023-05-22T02:25:19.475Z,100926.31
2023-05-22T02:27:48.230Z,100930.56
2023-05-22T02:30:15.910Z,100917.00
2023-05-22T02:32:43.234Z,100928.34
2023-05-22T02:35:11.636Z,100925.06
2023-05-22T02:37:39.035Z,100922.88
2023-05-22T02:40:08.208Z,100921.44
2023-05-22T02:42:35.185Z,100937.03
2023-05-22T02:45:05.718Z,100924.28
2023-05-22T02:47:32.788Z,100918.34
2023-05-22T02:50:02.803Z,100918.78
2023-05-22T02:52:31.280Z,100920.00
2023-05-22T02:54:58.238Z,100936.19
2023-05-22T02:57:25.172Z,100922.94
2023-05-22T02:59:52.940Z,100918.50
2023-05-22T03:02:21.011Z,100927.72
2023-05-22T03:04:48.025Z,100915.38
2023-05-22T03:07:20.581Z,100912.06
2023-05-22T03:09:47.961Z,100922.09
2023-05-22T03:12:16.567Z,100932.50
2023-05-22T03:14:43.616Z,100920.28
2023-05-22T03:17:10.685Z,100932.22
2023-05-22T03:19:37.768Z,100929.91
2023-05-22T03:22:04.776Z,100916.03
2023-05-22T03:24:32.671Z,100915.31
2023-05-22T03:27:00.734Z,100918.34
2023-05-22T03:29:27.845Z,100920.84
2023-05-22T03:31:57.329Z,100927.06
2023-05-22T03:34:27.747Z,100923.00
2023-05-22T03:36:59.095Z,100933.09
2023-05-22T03:39:26.239Z,100926.75
2023-05-22T03:41:54.383Z,100932.28
2023-05-22T03:44:25.449Z,100931.59
2023-05-22T03:47:00.454Z,100932.50
2023-05-22T03:49:27.634Z,100934.25
2023-05-22T03:51:54.693Z,100939.25
2023-05-22T03:54:22.992Z,100942.06
2023-05-22T03:56:50.502Z,100937.22
2023-05-22T03:59:17.576Z,100935.72
2023-05-22T04:01:46.858Z,100936.72
2023-05-22T04:04:14.548Z,100938.94
2023-05-22T04:06:43.549Z,100938.06
2023-05-22T04:09:12.329Z,100941.59
2023-05-22T04:11:40.229Z,100941.59
2023-05-22T04:14:07.506Z,100951.53
2023-05-22T04:16:37.761Z,100953.69
2023-05-22T04:19:10.326Z,100961.59
2023-05-22T04:21:38.787Z,100959.81
2023-05-22T04:24:09.739Z,100961.81
2023-05-22T04:26:40.982Z,100960.56
2023-05-22T04:29:10.827Z,100964.13
2023-05-22T04:31:37.782Z,100955.63
2023-05-22T04:34:05.712Z,100962.66
2023-05-22T04:36:32.745Z,100967.53
2023-05-22T04:39:00.699Z,100960.44
2023-05-22T04:41:27.752Z,100966.94
2023-05-22T04:43:55.203Z,100960.00
2023-05-22T04:46:22.832Z,100963.72
2023-05-22T04:48:50.033Z,100964.16
2023-05-22T04:51:16.995Z,100967.03
2023-05-22T04:53:43.942Z,100971.25
2023-05-22T04:56:13.108Z,100979.06
2023-05-22T04:58:41.745Z,100979.53
2023-05-22T05:01:18.998Z,100980.34
2023-05-22T05:03:48.012Z,100980.28
2023-05-22T05:06:15.839Z,100983.84
2023-05-22T05:08:44.613Z,100977.47
2023-05-22T05:11:11.824Z,100989.44
2023-05-22T05:13:38.877Z,100987.56
2023-05-22T05:16:07.682Z,100979.53
2023-05-22T05:18:35.767Z,100990.31
2023-05-22T05:21:02.875Z,100989.03
2023-05-22T05:23:29.863Z,100984.00
2023-05-22T05:25:57.260Z,100983.84
2023-05-22T05:28:24.275Z,100988.44
2023-05-22T05:30:51.707Z,100982.81
2023-05-22T05:33:20.064Z,100988.28
2023-05-22T05:35:52.974Z,100987.09
2023-05-22T05:38:20.397Z,100977.59
2023-05-22T05:40:47.542Z,100982.06
2023-05-22T05:43:22.109Z,100983.00
2023-05-22T05:45:49.268Z,100989.41
2023-05-22T05:48:16.838Z,100986.66
2023-05-22T05:50:50.626Z,100977.81
2023-05-22T05:53:18.785Z,100979.31
2023-05-22T05:55:47.366Z,100979.00
2023-05-22T05:58:17.680Z,100983.16
2023-05-22T06:00:44.923Z,100991.78
2023-05-22T06:03:12.236Z,100996.00
2023-05-22T06:05:39.505Z,100998.06
2023-05-22T06:08:11.952Z,101007.13
2023-05-22T06:10:40.467Z,101010.19
2023-05-22T06:13:07.768Z,101011.44
2023-05-22T06:15:34.808Z,101006.44
2023-05-22T06:18:02.981Z,100995.84
2023-05-22T06:20:30.454Z,101020.13
2023-05-22T06:22:57.451Z,101007.75
2023-05-22T06:25:26.441Z,101005.25
2023-05-22T06:27:53.538Z,101011.03
2023-05-22T06:30:38.411Z,101013.44
2023-05-22T06:33:08.291Z,101008.81
2023-05-22T06:35:35.362Z,101011.13
2023-05-22T06:38:02.618Z,101004.06
2023-05-22T06:40:32.471Z,101006.66
2023-05-22T06:43:02.708Z,101010.78
2023-05-22T06:45:35.464Z,101009.59
2023-05-22T06:48:02.786Z,101008.09
2023-05-22T06:50:31.681Z,101003.09
2023-05-22T06:52:58.811Z,101016.16
2023-05-22T06:55:27.381Z,101007.41
2023-05-22T06:57:54.362Z,101010.19
2023-05-22T07:00:22.050Z,101005.19
2023-05-22T07:02:50.423Z,101004.69
2023-05-22T07:05:17.858Z,101005.59
2023-05-22T07:07:45.088Z,101012.41
2023-05-22T07:10:12.187Z,101007.00
2023-05-22T07:12:39.833Z,101008.66
2023-05-22T07:15:12.098Z,101009.66
2023-05-22T07:17:42.022Z,101009.34
2023-05-22T07:20:12.301Z,101016.66
2023-05-22T07:22:42.125Z,101016.72
2023-05-22T07:25:09.507Z,101021.38
2023-05-22T07:27:36.804Z,101014.94
2023-05-22T07:30:04.660Z,101015.34
2023-05-22T07:32:31.600Z,101025.00
2023-05-22T07:35:01.723Z,101020.69
2023-05-22T07:37:30.375Z,101013.81
2023-05-22T07:39:57.562Z,101020.28
2023-05-22T07:42:26.597Z,101028.81
2023-05-22T07:44:56.568Z,101021.34
2023-05-22T07:47:23.593Z,101023.22
2023-05-22T07:49:50.666Z,101016.75
2023-05-22T07:52:17.732Z,101018.81
2023-05-22T07:54:45.529Z,101029.31
2023-05-22T07:57:14.309Z,101015.88
2023-05-22T07:59:43.914Z,101014.13
2023-05-22T08:02:11.922Z,101018.06
2023-05-22T08:04:39.627Z,101016.84
2023-05-22T08:07:07.052Z,101004.22
2023-05-22T08:09:34.433Z,101010.72
2023-05-22T08:12:01.570Z,101009.25
2023-05-22T08:14:31.917Z,101014.00
2023-05-22T08:16:59.940Z,101010.53
2023-05-22T08:19:29.491Z,101005.63
2023-05-22T08:21:58.515Z,101006.81
2023-05-22T08:24:31.084Z,101008.28
2023-05-22T08:27:02.134Z,101010.97
2023-05-22T08:29:29.312Z,101007.97
2023-05-22T08:31:58.508Z,101003.44
2023-05-22T08:34:30.227Z,101004.72
2023-05-22T08:37:00.385Z,101005.91
2023-05-22T08:39:27.364Z,100994.28
2023-05-22T08:41:54.680Z,101000.75
2023-05-22T08:44:25.144Z,100992.91
2023-05-22T08:46:56.926Z,100993.19
2023-05-22T08:49:24.649Z,101001.25
2023-05-22T08:52:03.609Z,100995.84
2023-05-22T08:54:32.561Z,101000.44
2023-05-22T08:57:01.445Z,100995.66
2023-05-22T08:59:30.050Z,100993.91
2023-05-22T09:01:59.697Z,100989.16
2023-05-22T09:04:28.747Z,100990.69
2023-05-22T09:06:55.842Z,100986.00
2023-05-22T09:09:23.654Z,100988.59
2023-05-22T09:11:57.643Z,100981.47
2023-05-22T09:14:26.149Z,100983.28
2023-05-22T09:16:55.203Z,100979.38
2023-05-22T09:19:22.334Z,100990.66
2023-05-22T09:21:50.798Z,100977.28
2023-05-22T09:24:18.100Z,100986.81
2023-05-22T09:26:46.905Z,100986.47
2023-05-22T09:29:17.451Z,100989.72
2023-05-22T09:31:45.282Z,100987.41
2023-05-22T09:34:16.000Z,100989.16
2023-05-22T09:36:43.681Z,100991.75
2023-05-22T09:39:11.398Z,100989.72
2023-05-22T09:41:41.740Z,100987.81
2023-05-22T09:44:16.500Z,100988.53
2023-05-22T09:46:48.108Z,100992.19
2023-05-22T09:49:16.814Z,100985.63
2023-05-22T09:51:49.901Z,100982.19
2023-05-22T09:54:19.132Z,100983.06
2023-05-22T09:56:56.850Z,100978.00
2023-05-22T09:59:30.570Z,100976.34
2023-05-22T10:01:58.670Z,100974.56
2023-05-22T10:04:28.445Z,100978.59
2023-05-22T10:07:01.260Z,100968.66
2023-05-22T10:09:34.436Z,100975.25
2023-05-22T10:12:06.334Z,100968.31
2023-05-22T10:14:35.893Z,100965.53
2023-05-22T10:17:04.964Z,100961.47
2023-05-22T10:19:34.230Z,100958.22
2023-05-22T10:22:01.862Z,100957.63
2023-05-22T10:24:33.191Z,100956.88
2023-05-22T10:27:00.413Z,100957.34
2023-05-22T10:30:04.128Z,100954.84
2023-05-22T10:32:48.968Z,100956.84
2023-05-22T10:35:30.233Z,100958.31
2023-05-22T10:38:17.065Z,100952.31
2023-05-22T10:40:52.815Z,100953.75
2023-05-22T10:43:22.037Z,100951.88
2023-05-22T10:45:50.802Z,100947.25
2023-05-22T10:48:22.395Z,100943.50
2023-05-22T10:50:55.288Z,100943.47
2023-05-22T10:53:27.344Z,100944.06
2023-05-22T10:55:55.136Z,100941.31
2023-05-22T10:58:34.802Z,100945.97
2023-05-22T11:01:18.777Z,100947.84
2023-05-22T11:04:00.865Z,100937.63
2023-05-22T11:07:08.290Z,100932.34
2023-05-22T11:09:46.215Z,100941.53
2023-05-22T11:12:28.982Z,100943.25
2023-05-22T11:15:06.780Z,100938.94
2023-05-22T11:17:36.663Z,100932.44
2023-05-22T11:20:07.837Z,100929.16
2023-05-22T11:22:42.885Z,100923.78
2023-05-22T11:25:20.549Z,100919.00
2023-05-22T11:27:51.086Z,100919.13
2023-05-22T11:30:18.092Z,100927.28
2023-05-22T11:32:46.797Z,100921.28
2023-05-22T11:35:24.101Z,100915.88
2023-05-22T11:37:53.797Z,100907.09
2023-05-22T11:40:26.880Z,100899.81
2023-05-22T11:42:57.848Z,100909.63
2023-05-22T11:45:25.717Z,100913.09
2023-05-22T11:47:53.264Z,100907.25
2023-05-22T11:50:33.542Z,100899.13
2023-05-22T11:53:11.210Z,100890.97
2023-05-22T11:55:43.198Z,100890.31
2023-05-22T11:58:11.229Z,100891.50
2023-05-22T12:00:38.578Z,100892.72
2023-05-22T12:03:06.871Z,100896.16
2023-05-22T12:05:33.907Z,100908.06
2023-05-22T12:08:01.466Z,100899.34
2023-05-22T12:10:30.064Z,100898.28
2023-05-22T12:12:57.057Z,100896.84
2023-05-22T12:15:24.926Z,100891.59
2023-05-22T12:17:55.807Z,100880.75
2023-05-22T12:20:23.402Z,100881.59
2023-05-22T12:22:50.518Z,100885.72
2023-05-22T12:25:17.966Z,100881.00
2023-05-22T12:27:48.295Z,100887.53
2023-05-22T12:30:15.872Z,100884.00
2023-05-22T12:32:49.800Z,100885.59
2023-05-22T12:35:24.422Z,100879.56
2023-05-22T12:37:54.049Z,100880.78
2023-05-22T12:40:25.341Z,100871.34
2023-05-22T12:42:52.854Z,100874.81
2023-05-22T12:45:20.076Z,100874.22
2023-05-22T12:47:47.305Z,100868.25
2023-05-22T12:50:14.544Z,100878.91
2023-05-22T12:52:41.492Z,100874.44
2023-05-22T12:55:15.627Z,100867.16
2023-05-22T12:57:43.780Z,100869.50
2023-05-22T13:00:14.056Z,100870.84
2023-05-22T13:02:41.610Z,100870.34
2023-05-22T13:05:08.872Z,100867.66
2023-05-22T13:07:36.140Z,100863.97
2023-05-22T13:10:04.719Z,100858.00
2023-05-22T13:12:35.234Z,100862.16
2023-05-22T13:15:05.556Z,100859.47
2023-05-22T13:17:33.006Z,100851.84
2023-05-22T13:20:00.278Z,100838.44
2023-05-22T13:22:27.211Z,100846.69
2023-05-22T13:24:54.285Z,100849.28
2023-05-22T13:27:21.281Z,100839.78
2023-05-22T13:29:48.154Z,100843.44
2023-05-22T13:32:15.452Z,100837.66
2023-05-22T13:34:42.632Z,100839.31
2023-05-22T13:37:12.861Z,100831.84
2023-05-22T13:39:40.062Z,100836.84
2023-05-22T13:42:07.855Z,100827.41
2023-05-22T13:44:45.171Z,100819.84
2023-05-22T13:47:12.538Z,100822.59
2023-05-22T13:49:39.773Z,100823.69
2023-05-22T13:52:07.876Z,100822.06
2023-05-22T13:54:34.881Z,100816.16
2023-05-22T13:57:06.735Z,100809.47
2023-05-22T13:59:33.698Z,100803.75
2023-05-22T14:02:02.693Z,100804.69
2023-05-22T14:04:30.119Z,100800.78
2023-05-22T14:06:59.993Z,100804.41
2023-05-22T14:09:30.777Z,100804.59
2023-05-22T14:12:00.471Z,100805.53
2023-05-22T14:14:27.413Z,100803.66
2023-05-22T14:16:56.853Z,100808.28
2023-05-22T14:19:26.597Z,100794.09
2023-05-22T14:21:55.200Z,100795.09
2023-05-22T14:24:25.483Z,100789.44
2023-05-22T14:26:58.276Z,100791.56
2023-05-22T14:29:26.154Z,100789.75
2023-05-22T14:31:55.699Z,100787.56
2023-05-22T14:34:22.598Z,100784.34
2023-05-22T14:36:49.609Z,100786.09
2023-05-22T14:39:17.214Z,100782.69
2023-05-22T14:41:44.512Z,100783.16
2023-05-22T14:44:11.592Z,100781.25
2023-05-22T14:46:38.639Z,100779.03
2023-05-22T14:49:05.621Z,100773.13
2023-05-22T14:51:35.795Z,100776.03
2023-05-22T14:54:02.931Z,100773.75
2023-05-22T14:56:29.938Z,100772.66
2023-05-22T14:58:57.734Z,100770.91
2023-05-22T15:01:24.822Z,100765.63
2023-05-22T15:03:52.505Z,100768.41
2023-05-22T15:06:21.214Z,100765.16
2023-05-22T15:08:49.322Z,100751.19
2023-05-22T15:11:18.404Z,100758.00
2023-05-22T15:13:45.366Z,100746.25
2023-05-22T15:16:12.336Z,100739.88
2023-05-22T15:18:39.878Z,100740.06
2023-05-22T15:21:07.042Z,100740.28
2023-05-22T15:23:33.969Z,100745.44
2023-05-22T15:26:00.974Z,100746.28
2023-05-22T15:28:27.965Z,100745.81
2023-05-22T15:30:54.931Z,100736.53
2023-05-22T15:33:22.217Z,100745.09
2023-05-22T15:35:49.097Z,100748.03
2023-05-22T15:38:17.580Z,100749.72
2023-05-22T15:40:45.012Z,100748.91
2023-05-22T15:43:11.983Z,100744.69
2023-05-22T15:45:45.603Z,100754.84
2023-05-22T15:48:13.385Z,100759.13
2023-05-22T15:50:40.291Z,100758.00
2023-05-22T15:53:07.304Z,100746.97
2023-05-22T15:55:34.434Z,100755.59
2023-05-22T15:58:03.140Z,100748.91
2023-05-22T16:00:30.159Z,100756.53
2023-05-22T16:02:57.170Z,100748.59
2023-05-22T16:05:24.197Z,100753.50
2023-05-22T16:07:51.044Z,100747.38
2023-05-22T16:10:21.935Z,100747.50
2023-05-22T16:12:48.913Z,100746.03
2023-05-22T16:15:16.173Z,100752.50
2023-05-22T16:17:48.067Z,100751.09
2023-05-22T16:20:16.605Z,100747.38
2023-05-22T16:22:48.795Z,100753.81
2023-05-22T16:25:17.249Z,100746.13
2023-05-22T16:27:44.596Z,100749.34
2023-05-22T16:30:19.614Z,100750.38
2023-05-22T16:32:47.194Z,100745.53
2023-05-22T16:35:22.350Z,100747.63
2023-05-22T16:37:50.543Z,100744.06
2023-05-22T16:40:18.837Z,100747.69
2023-05-22T16:42:48.120Z,100749.09
2023-05-22T16:45:19.376Z,100742.38
2023-05-22T16:47:46.871Z,100760.56
2023-05-22T16:50:16.702Z,100762.06
2023-05-22T16:52:43.754Z,100755.34
2023-05-22T16:55:11.362Z,100757.78
2023-05-22T16:57:43.026Z,100759.47
2023-05-22T17:02:53.108Z,100765.56
2023-05-22T17:05:24.588Z,100768.81
2023-05-22T17:07:51.783Z,100770.97
2023-05-22T17:10:21.999Z,100769.72
2023-05-22T17:12:48.969Z,100778.75
2023-05-22T17:15:16.000Z,100776.69
2023-05-22T17:17:42.996Z,100777.81
2023-05-22T17:20:12.078Z,100779.38
2023-05-22T17:22:39.267Z,100783.00
2023-05-22T17:25:06.662Z,100780.84
2023-05-22T17:27:36.499Z,100788.47
2023-05-22T17:30:06.517Z,100790.25
2023-05-22T17:32:34.896Z,100793.44
2023-05-22T17:35:07.119Z,100790.47
2023-05-22T17:37:34.502Z,100798.59
2023-05-22T17:40:01.422Z,100800.56
2023-05-22T17:42:28.452Z,100808.16
2023-05-22T17:44:55.490Z,100800.06
2023-05-22T17:47:22.709Z,100796.78
2023-05-22T17:49:51.417Z,100810.44
2023-05-22T17:52:20.255Z,100807.59
2023-05-22T17:54:47.716Z,100809.44
2023-05-22T17:57:15.876Z,100805.69
2023-05-22T17:59:45.820Z,100804.19
2023-05-22T18:02:18.497Z,100809.09
2023-05-22T18:04:48.787Z,100805.16
2023-05-22T18:07:17.497Z,100806.44
2023-05-22T18:09:50.928Z,100809.56
2023-05-22T18:12:31.057Z,100808.94
2023-05-22T18:15:00.511Z,100815.09
2023-05-22T18:17:29.433Z,100812.75
2023-05-22T18:19:56.507Z,100822.16
2023-05-22T18:22:25.246Z,100823.13
2023-05-22T18:24:52.529Z,100826.53
2023-05-22T18:27:19.572Z,100821.50
2023-05-22T18:29:47.286Z,100821.75
2023-05-22T18:32:14.634Z,100815.09
2023-05-22T18:34:42.205Z,100818.19
2023-05-22T18:37:11.709Z,100821.91
2023-05-22T18:39:39.151Z,100812.28
2023-05-22T18:42:06.507Z,100819.50
2023-05-22T18:44:35.440Z,100806.81
2023-05-22T18:47:05.201Z,100813.81
2023-05-22T18:49:35.308Z,100816.38
2023-05-22T18:52:08.520Z,100817.06
2023-05-22T18:54:41.354Z,100816.16
2023-05-22T18:57:29.093Z,100822.78
2023-05-22T19:00:04.181Z,100825.69
2023-05-22T19:02:32.148Z,100827.31
2023-05-22T19:05:01.184Z,100834.63
2023-05-22T19:07:34.997Z,100841.00
2023-05-22T19:10:05.494Z,100840.09
2023-05-22T19:12:37.168Z,100835.97
2023-05-22T19:15:05.452Z,100847.59
2023-05-22T19:17:37.767Z,100846.44
2023-05-22T19:20:13.140Z,100855.19
2023-05-22T19:22:44.771Z,100848.59
2023-05-22T19:25:29.239Z,100852.03
2023-05-22T19:28:00.530Z,100852.91
2023-05-22T19:30:28.108Z,100855.50
2023-05-22T19:33:08.553Z,100858.34
2023-05-22T19:35:40.646Z,100865.16
2023-05-22T19:38:09.366Z,100868.75
2023-05-22T19:40:49.823Z,100874.09
2023-05-22T19:43:27.537Z,100871.41
2023-05-22T19:45:56.855Z,100876.47
2023-05-22T19:48:26.002Z,100872.19
2023-05-22T19:50:53.511Z,100882.81
2023-05-22T19:53:21.689Z,100876.72
2023-05-22T19:55:49.567Z,100883.69
2023-05-22T19:58:19.784Z,100883.16
2023-05-22T20:00:49.884Z,100878.75
2023-05-22T20:03:21.430Z,100885.84
2023-05-22T20:05:54.149Z,100888.75
2023-05-22T20:08:26.193Z,100893.56
2023-05-22T20:10:54.820Z,100896.38
2023-05-22T20:13:23.302Z,100899.69
2023-05-22T20:15:54.838Z,100898.19
2023-05-22T20:18:30.330Z,100899.59
2023-05-22T20:20:58.058Z,100905.50
2023-05-22T20:23:28.405Z,100916.94
2023-05-22T20:25:56.617Z,100914.19
2023-05-22T20:28:23.978Z,100917.81
2023-05-22T20:30:55.121Z,100916.53
2023-05-22T20:33:30.399Z,100917.50
2023-05-22T20:35:59.811Z,100918.44
2023-05-22T20:38:33.974Z,100922.84
2023-05-22T20:41:21.177Z,100920.44
2023-05-22T20:43:48.396Z,100926.84
2023-05-22T20:46:16.896Z,100920.19
2023-05-22T20:48:48.437Z,100922.44
2023-05-22T20:51:25.778Z,100931.63
2023-05-22T20:54:01.638Z,100926.22
2023-05-22T20:56:30.366Z,100928.56
2023-05-22T20:58:57.420Z,100928.41
2023-05-22T21:01:27.960Z,100935.22
2023-05-22T21:03:58.381Z,100935.66
2023-05-22T21:06:26.720Z,100936.69
2023-05-22T21:09:01.845Z,100940.66
2023-05-22T21:11:28.989Z,100935.47
2023-05-22T21:13:56.114Z,100939.38
2023-05-22T21:16:23.249Z,100933.19
2023-05-22T21:18:50.445Z,100931.63
2023-05-22T21:21:22.140Z,100941.75
2023-05-22T21:23:50.117Z,100940.28
2023-05-22T21:26:17.453Z,100932.38
2023-05-22T21:28:44.852Z,100943.06
2023-05-22T21:31:11.831Z,100940.38
2023-05-22T21:33:38.864Z,100935.16
2023-05-22T21:36:08.656Z,100931.22
2023-05-22T21:38:35.856Z,100931.94
2023-05-22T21:41:02.800Z,100936.63
2023-05-22T21:43:29.726Z,100936.44
2023-05-22T21:45:59.695Z,100939.59
2023-05-22T21:48:26.787Z,100936.44
2023-05-22T21:50:53.680Z,100934.72
2023-05-22T21:53:22.556Z,100936.66
2023-05-22T21:55:49.540Z,100939.91
2023-05-22T21:58:16.626Z,100936.25
2023-05-22T22:00:47.076Z,100938.34
2023-05-22T22:03:16.905Z,100942.47
2023-05-22T22:05:44.872Z,100944.09
2023-05-22T22:08:12.710Z,100939.41
2023-05-22T22:10:39.964Z,100945.63
2023-05-22T22:13:07.217Z,100947.97
2023-05-22T22:15:34.295Z,100952.66
2023-05-22T22:18:02.639Z,100950.06
2023-05-22T22:20:44.421Z,100950.41
2023-05-22T22:23:12.208Z,100952.78
2023-05-22T22:25:39.638Z,100952.91
2023-05-22T22:28:07.628Z,100959.09
2023-05-22T22:30:37.912Z,100959.28
2023-05-22T22:33:05.956Z,100966.41
2023-05-22T22:35:32.978Z,100963.06
2023-05-22T22:38:04.841Z,100965.66
2023-05-22T22:40:32.814Z,100966.28
2023-05-22T22:43:04.330Z,100966.28
2023-05-22T22:45:32.666Z,100960.56
2023-05-22T22:48:01.282Z,100964.09
2023-05-22T22:50:28.546Z,100955.56
2023-05-22T22:52:56.038Z,100956.63
2023-05-22T22:55:23.244Z,100969.75
2023-05-22T22:57:50.692Z,100956.41
2023-05-22T23:00:18.532Z,100959.75
2023-05-22T23:02:45.817Z,100963.88
2023-05-22T23:05:13.723Z,100952.59
2023-05-22T23:07:44.747Z,100954.81
2023-05-22T23:10:11.862Z,100949.31
2023-05-22T23:12:42.197Z,100949.31
2023-05-22T23:15:09.897Z,100947.19
2023-05-22T23:17:37.553Z,100945.47
2023-05-22T23:20:05.845Z,100952.88
2023-05-22T23:22:32.916Z,100949.53
2023-05-22T23:25:05.494Z,100947.88
2023-05-22T23:27:33.460Z,100947.91
2023-05-22T23:30:02.051Z,100934.91
2023-05-22T23:32:29.048Z,100939.97
2023-05-22T23:34:56.877Z,100939.28
2023-05-22T23:37:24.105Z,100941.78
2023-05-22T23:39:52.712Z,100935.66
2023-05-22T23:42:25.018Z,100938.16
2023-05-22T23:44:58.060Z,100936.44
2023-05-22T23:47:26.693Z,100939.13
2023-05-22T23:49:55.588Z,100929.97
2023-05-22T23:52:25.065Z,100927.84
2023-05-22T23:54:51.948Z,100923.28
2023-05-22T23:57:19.049Z,100923.28
2023-05-22T23:59:46.094Z,100931.00
